Time;durP1;ratioP1;P1;durP2;ratioP2;P2;SDS_P1;SDS_P2;PMS_P1;PMS_P2;Temp;Humidity;BMP_temperature;BMP_pressure;BME280_temperature;BME280_humidity;BME280_pressure;Samples;Min_cycle;Max_cycle;Signal;HPM_P1;HPM_P2
2022/05/23 00:02:03;;;;;;;4.35;1.58;;;14.10;99.90;;;;;;4879984;29;20407;-87
2022/05/23 00:04:30;;;;;;;2.65;1.85;;;14.00;99.90;;;;;;4861158;29;20069;-88
2022/05/23 00:06:56;;;;;;;1.40;1.30;;;14.00;99.90;;;;;;4861501;29;20049;-89
2022/05/23 00:09:22;;;;;;;4.32;1.70;;;14.00;99.90;;;;;;4863117;29;20045;-87
2022/05/23 00:11:48;;;;;;;2.20;1.25;;;14.00;99.90;;;;;;4860711;29;20051;-88
2022/05/23 00:14:15;;;;;;;1.58;1.05;;;13.90;99.90;;;;;;4845303;29;20048;-88
2022/05/23 00:16:45;;;;;;;4.10;1.65;;;13.90;99.90;;;;;;4859774;29;20080;-88
2022/05/23 00:19:11;;;;;;;8.57;1.52;;;14.00;99.90;;;;;;4843685;29;20115;-88
2022/05/23 00:21:40;;;;;;;3.13;1.92;;;13.90;99.90;;;;;;4845501;29;20041;-88
2022/05/23 00:24:07;;;;;;;1.52;1.42;;;14.00;99.90;;;;;;4875437;29;20044;-87
2022/05/23 00:26:35;;;;;;;1.85;1.25;;;13.80;99.90;;;;;;4860182;29;20092;-90
2022/05/23 00:29:01;;;;;;;1.38;1.27;;;13.80;99.90;;;;;;4861323;29;20053;-88
2022/05/23 00:31:29;;;;;;;1.73;1.33;;;13.80;99.90;;;;;;4839896;29;20050;-88
2022/05/23 00:36:39;;;;;;;1.40;1.08;;;12.70;99.90;;;;;;4859571;29;20057;-90
2022/05/23 00:39:08;;;;;;;1.70;1.43;;;13.70;99.90;;;;;;4862394;29;20138;-88
2022/05/23 00:44:31;;;;;;;2.50;1.00;;;13.70;99.90;;;;;;4861142;29;20139;-88
2022/05/23 00:46:59;;;;;;;5.85;1.40;;;13.60;99.90;;;;;;4859998;29;20048;-88
2022/05/23 00:49:32;;;;;;;3.47;1.42;;;13.60;99.90;;;;;;4843818;29;20049;-88
2022/05/23 00:52:03;;;;;;;2.15;1.95;;;13.60;99.90;;;;;;4860671;29;20112;-88
2022/05/23 00:54:42;;;;;;;1.80;1.30;;;13.60;99.90;;;;;;4862031;29;20567;-88
2022/05/23 00:57:11;;;;;;;2.42;1.70;;;13.60;99.90;;;;;;4872779;29;20132;-89
2022/05/23 00:59:37;;;;;;;1.15;1.05;;;13.60;99.90;;;;;;4846040;29;20049;-91
2022/05/23 01:02:04;;;;;;;2.53;1.20;;;13.50;99.90;;;;;;4839690;29;20096;-88
2022/05/23 01:04:31;;;;;;;1.83;1.38;;;13.40;99.90;;;;;;4862643;29;20060;-88
2022/05/23 01:06:57;;;;;;;;;;;13.40;99.90;;;;;;4848223;29;20389;-87
2022/05/23 01:09:26;;;;;;;1.63;0.95;;;13.40;99.90;;;;;;4878714;29;20386;-88
2022/05/23 01:11:53;;;;;;;3.72;1.40;;;13.40;99.90;;;;;;4881027;29;20056;-88
2022/05/23 01:14:20;;;;;;;1.58;1.48;;;13.40;99.90;;;;;;4861777;29;20053;-88
2022/05/23 01:16:46;;;;;;;;;;;13.40;99.90;;;;;;4871722;29;20049;-88
2022/05/23 01:19:12;;;;;;;1.15;1.10;;;13.40;99.90;;;;;;4863053;29;19923;-88
2022/05/23 01:21:59;;;;;;;1.35;1.20;;;13.30;99.90;;;;;;4878673;29;20116;-87
2022/05/23 01:24:56;;;;;;;2.55;1.50;;;13.30;99.90;;;;;;4857601;29;20113;-88
2022/05/23 01:27:22;;;;;;;2.45;1.40;;;13.30;99.90;;;;;;4858766;29;20064;-87
2022/05/23 01:29:47;;;;;;;1.50;1.40;;;13.30;99.90;;;;;;4878697;29;20045;-88
2022/05/23 01:32:13;;;;;;;1.67;1.57;;;13.30;99.90;;;;;;4848067;29;20067;-87
2022/05/23 01:34:42;;;;;;;2.63;1.83;;;13.30;99.90;;;;;;4831969;29;20057;-89
2022/05/23 01:37:07;;;;;;;1.88;1.25;;;13.30;99.90;;;;;;4867266;29;20052;-88
2022/05/23 01:39:33;;;;;;;1.50;1.27;;;13.30;99.90;;;;;;4847846;29;20108;-88
2022/05/23 01:41:59;;;;;;;1.37;1.27;;;13.30;99.90;;;;;;4862550;29;20040;-88
2022/05/23 01:44:24;;;;;;;3.07;1.60;;;13.30;99.90;;;;;;4863834;29;20460;-87
2022/05/23 01:46:50;;;;;;;2.13;1.80;;;13.30;99.90;;;;;;4877269;29;20128;-88
2022/05/23 01:49:16;;;;;;;4.17;1.87;;;13.30;99.90;;;;;;4864537;29;20049;-88
2022/05/23 01:51:41;;;;;;;1.47;1.33;;;13.30;99.90;;;;;;4866473;29;20052;-88
2022/05/23 01:54:07;;;;;;;2.77;1.33;;;13.30;99.90;;;;;;4851579;29;20049;-88
2022/05/23 01:56:33;;;;;;;1.47;1.27;;;13.30;99.90;;;;;;4866042;29;20122;-87
2022/05/23 02:01:45;;;;;;;1.80;1.67;;;13.70;99.90;;;;;;4866996;29;20124;-89
2022/05/23 02:04:11;;;;;;;1.50;1.40;;;13.30;99.90;;;;;;4866298;29;20490;-88
2022/05/23 02:06:37;;;;;;;1.57;1.43;;;13.30;99.90;;;;;;4881321;29;20060;-89
2022/05/23 02:09:04;;;;;;;5.00;1.50;;;13.30;99.90;;;;;;4875545;29;20059;-88
2022/05/23 02:11:30;;;;;;;3.03;1.30;;;13.30;99.90;;;;;;4880007;29;20448;-88
2022/05/23 02:13:55;;;;;;;1.50;1.40;;;13.30;99.90;;;;;;4877755;29;20045;-88
2022/05/23 02:16:22;;;;;;;1.50;1.40;;;13.30;99.90;;;;;;4865890;29;20083;-88
2022/05/23 02:18:48;;;;;;;2.05;1.25;;;13.30;99.90;;;;;;4850366;29;20381;-91
2022/05/23 02:21:13;;;;;;;5.17;1.83;;;13.30;99.90;;;;;;4880609;29;20044;-89
2022/05/23 02:23:39;;;;;;;1.30;1.20;;;13.30;99.90;;;;;;4865401;29;20045;-87
2022/05/23 02:26:05;;;;;;;1.50;1.40;;;13.30;99.90;;;;;;4834470;29;20419;-88
2022/05/23 02:28:33;;;;;;;3.33;1.90;;;12.20;99.90;;;;;;4849141;29;20048;-88
2022/05/23 02:30:59;;;;;;;2.15;1.95;;;13.20;99.90;;;;;;4881264;29;20591;-89
2022/05/23 02:33:25;;;;;;;4.53;2.37;;;13.20;99.90;;;;;;4866403;29;20045;-87
2022/05/23 02:35:50;;;;;;;1.60;1.50;;;13.10;99.90;;;;;;4865409;29;20048;-89
2022/05/23 02:38:19;;;;;;;5.93;1.47;;;13.10;99.90;;;;;;4864806;29;20053;-89
2022/05/23 02:40:44;;;;;;;4.00;2.63;;;13.10;99.90;;;;;;4865737;29;20127;-88
2022/05/23 02:43:10;;;;;;;2.57;1.60;;;13.10;99.90;;;;;;4876063;29;20703;-89
2022/05/23 02:45:41;;;;;;;2.05;1.60;;;13.10;99.90;;;;;;4865505;29;20131;-89
2022/05/23 02:48:10;;;;;;;1.80;1.70;;;13.10;99.90;;;;;;4864914;29;20083;-88
2022/05/23 02:50:37;;;;;;;3.97;2.10;;;13.10;99.90;;;;;;4850276;29;20052;-88
2022/05/23 02:53:08;;;;;;;7.50;2.92;;;13.10;99.90;;;;;;4862245;29;20053;-88
2022/05/23 02:55:38;;;;;;;3.90;2.72;;;13.20;99.90;;;;;;4849477;29;20516;-88
2022/05/23 02:58:07;;;;;;;1.60;1.50;;;13.30;99.90;;;;;;4873162;29;20503;-88
2022/05/23 03:00:35;;;;;;;2.20;1.92;;;13.20;99.90;;;;;;4865482;29;20083;-88
2022/05/23 03:03:01;;;;;;;3.55;1.33;;;13.30;99.90;;;;;;4881161;29;20084;-88
2022/05/23 03:05:29;;;;;;;3.92;1.92;;;13.20;99.90;;;;;;4880723;29;20045;-88
2022/05/23 03:07:54;;;;;;;3.22;1.70;;;14.10;99.90;;;;;;4865196;29;20063;-92
2022/05/23 03:10:20;;;;;;;3.93;2.40;;;13.30;99.90;;;;;;4878173;29;20044;-88
2022/05/23 03:12:46;;;;;;;2.70;2.50;;;13.30;99.90;;;;;;4881107;29;20080;-88
2022/05/23 03:15:15;;;;;;;4.50;2.37;;;13.20;99.90;;;;;;4875530;29;20080;-88
2022/05/23 03:17:41;;;;;;;2.65;1.92;;;13.20;99.90;;;;;;4866809;29;20392;-88
2022/05/23 03:20:08;;;;;;;3.67;1.63;;;13.30;99.90;;;;;;4879226;29;20119;-89
2022/05/23 03:28:03;;;;;;;2.28;1.75;;;13.30;99.90;;;;;;4867457;29;20044;-88
2022/05/23 03:30:29;;;;;;;1.87;1.70;;;13.30;99.90;;;;;;4844244;29;20041;-90
2022/05/23 03:32:57;;;;;;;3.75;2.30;;;13.20;99.90;;;;;;4878506;29;20500;-88
2022/05/23 03:35:23;;;;;;;2.17;1.83;;;13.20;99.90;;;;;;4849764;29;20092;-88
2022/05/23 03:37:49;;;;;;;2.58;2.38;;;13.20;99.90;;;;;;4865598;29;20072;-89
2022/05/23 03:40:17;;;;;;;2.80;1.77;;;13.30;99.90;;;;;;4863926;29;20087;-88
2022/05/23 03:42:43;;;;;;;3.55;2.08;;;12.60;99.90;;;;;;4864001;29;20507;-88
2022/05/23 03:45:09;;;;;;;2.23;2.03;;;13.20;99.90;;;;;;4877504;29;20037;-88
2022/05/23 03:47:35;;;;;;;2.92;1.95;;;13.20;99.90;;;;;;4863155;29;20056;-88
2022/05/23 03:50:01;;;;;;;1.70;1.60;;;13.20;99.90;;;;;;4833931;29;20052;-89
2022/05/23 03:52:26;;;;;;;2.67;2.13;;;13.10;99.90;;;;;;4895803;29;20045;-90
2022/05/23 03:54:52;;;;;;;1.73;1.63;;;13.10;99.90;;;;;;4880136;29;20072;-88
2022/05/23 03:57:19;;;;;;;3.83;2.80;;;13.10;99.90;;;;;;4864808;29;20060;-88
2022/05/23 03:59:45;;;;;;;2.85;2.00;;;13.10;99.90;;;;;;4880344;29;20484;-88
2022/05/23 04:02:11;;;;;;;;;;;13.10;99.90;;;;;;4880297;29;20044;-88
2022/05/23 04:04:37;;;;;;;2.92;2.70;;;12.80;99.90;;;;;;4864723;29;19929;-88
2022/05/23 04:07:06;;;;;;;2.50;2.15;;;13.00;99.90;;;;;;4870358;29;20059;-89
2022/05/23 04:09:32;;;;;;;2.65;2.30;;;13.30;99.90;;;;;;4875201;29;20052;-88
2022/05/23 04:11:58;;;;;;;3.65;2.33;;;12.60;99.90;;;;;;4848571;29;20067;-88
2022/05/23 04:14:26;;;;;;;3.15;2.17;;;13.00;99.90;;;;;;4866738;29;20131;-87
2022/05/23 04:16:53;;;;;;;2.80;2.10;;;12.90;99.90;;;;;;4869778;29;20088;-88
2022/05/23 04:19:19;;;;;;;2.08;1.90;;;13.00;99.90;;;;;;4846249;29;20052;-87
2022/05/23 04:21:46;;;;;;;2.88;2.20;;;13.00;99.90;;;;;;4879435;29;20531;-87
2022/05/23 04:24:16;;;;;;;5.00;2.47;;;13.00;99.90;;;;;;4892196;29;20494;-87
2022/05/23 04:26:44;;;;;;;4.93;2.67;;;12.90;99.90;;;;;;4879352;29;20078;-87
2022/05/23 04:29:11;;;;;;;3.13;2.30;;;12.90;99.90;;;;;;4878701;29;20127;-87
2022/05/23 04:31:37;;;;;;;2.85;2.10;;;12.90;99.90;;;;;;4878612;29;20547;-87
2022/05/23 04:36:49;;;;;;;2.63;2.42;;;12.90;99.90;;;;;;4878578;29;20060;-88
2022/05/23 04:39:14;;;;;;;3.22;2.63;;;12.90;99.90;;;;;;4879395;29;20044;-88
2022/05/23 04:41:40;;;;;;;2.60;2.40;;;12.90;99.90;;;;;;4863344;29;20049;-88
2022/05/23 04:44:07;;;;;;;2.77;2.57;;;13.00;99.90;;;;;;4863432;29;20041;-90
2022/05/23 04:46:33;;;;;;;3.00;2.80;;;13.00;99.90;;;;;;4878909;29;20448;-88
2022/05/23 04:51:43;;;;;;;2.47;2.30;;;13.00;99.90;;;;;;4879781;29;20624;-87
2022/05/23 04:54:09;;;;;;;2.40;2.20;;;13.00;99.90;;;;;;4879131;29;20045;-89
2022/05/23 04:56:37;;;;;;;5.07;2.50;;;13.10;99.90;;;;;;4862999;29;20376;-87
2022/05/23 04:59:03;;;;;;;3.55;2.45;;;13.20;99.90;;;;;;4878223;29;20304;-87
2022/05/23 05:01:30;;;;;;;3.78;2.95;;;13.30;99.90;;;;;;4873747;29;20067;-87
2022/05/23 05:03:57;;;;;;;3.80;2.63;;;13.70;99.90;;;;;;4863009;29;20987;-88
2022/05/23 05:06:24;;;;;;;3.05;2.33;;;14.10;99.90;;;;;;4863084;29;20081;-88
2022/05/23 05:08:50;;;;;;;;;;;14.30;99.90;;;;;;4876548;29;20052;-87
2022/05/23 05:11:18;;;;;;;3.85;2.25;;;14.30;99.90;;;;;;4847683;29;19930;-87
2022/05/23 05:13:45;;;;;;;4.53;3.50;;;14.20;99.90;;;;;;4874474;29;20428;-90
2022/05/23 05:16:12;;;;;;;3.90;2.95;;;14.20;99.90;;;;;;4864078;29;20815;-91
2022/05/23 05:18:40;;;;;;;3.20;2.20;;;14.10;99.90;;;;;;4873083;29;20048;-89
2022/05/23 05:21:12;;;;;;;2.45;2.08;;;14.10;99.90;;;;;;4878222;29;20092;-89
2022/05/23 05:23:40;;;;;;;3.63;2.50;;;14.10;99.90;;;;;;4879193;29;20529;-89
2022/05/23 05:26:06;;;;;;;4.18;3.00;;;14.10;99.90;;;;;;4867714;29;20096;-90
2022/05/23 05:28:32;;;;;;;3.72;2.58;;;14.20;99.90;;;;;;4876709;29;20048;-92
2022/05/23 05:31:37;;;;;;;4.07;2.70;;;14.30;99.90;;;;;;4882426;29;20466;-92
2022/05/23 05:34:10;;;;;;;3.10;2.50;;;14.50;99.90;;;;;;4862444;29;20053;-89
2022/05/23 05:36:42;;;;;;;3.65;2.17;;;14.70;99.90;;;;;;4879320;29;20118;-88
2022/05/23 05:39:08;;;;;;;3.63;2.78;;;14.80;99.90;;;;;;4899904;29;20123;-89
2022/05/23 05:41:53;;;;;;;3.60;2.53;;;15.00;99.90;;;;;;4879851;29;20041;-87
2022/05/23 05:44:23;;;;;;;3.20;2.20;;;15.00;99.90;;;;;;4880529;29;20041;-87
2022/05/23 05:46:54;;;;;;;3.53;2.42;;;14.90;99.90;;;;;;4882354;29;20444;-85
2022/05/23 05:49:23;;;;;;;3.00;2.78;;;14.90;99.90;;;;;;4879244;29;20511;-88
2022/05/23 05:51:54;;;;;;;2.72;2.53;;;14.80;99.90;;;;;;4872536;29;20069;-90
2022/05/23 05:54:24;;;;;;;5.57;2.80;;;14.80;99.90;;;;;;4891475;29;20040;-88
2022/05/23 05:56:51;;;;;;;3.58;2.90;;;14.80;99.90;;;;;;4897710;29;20048;-89
2022/05/23 05:59:18;;;;;;;2.67;2.42;;;14.80;99.90;;;;;;4898681;29;20411;-88
2022/05/23 06:01:44;;;;;;;5.38;2.92;;;14.80;99.90;;;;;;4882751;29;20052;-89
2022/05/23 06:04:10;;;;;;;4.05;3.53;;;14.80;99.90;;;;;;4867000;29;20052;-88
2022/05/23 06:12:04;;;;;;;4.28;2.63;;;15.40;99.90;;;;;;4864598;29;20049;-88
2022/05/23 06:14:30;;;;;;;8.25;3.50;;;15.80;99.90;;;;;;4878742;29;20343;-89
2022/05/23 06:16:55;;;;;;;3.10;2.72;;;16.10;99.90;;;;;;4873687;29;20124;-88
2022/05/23 06:19:21;;;;;;;3.30;2.97;;;16.30;99.90;;;;;;4863248;29;20056;-89
2022/05/23 06:21:47;;;;;;;4.03;3.30;;;16.50;99.90;;;;;;4862855;29;20104;-89
2022/05/23 06:24:13;;;;;;;3.90;2.87;;;16.70;99.90;;;;;;4863274;29;20128;-89
2022/05/23 06:26:39;;;;;;;3.55;2.90;;;16.80;99.90;;;;;;4878404;29;20377;-90
2022/05/23 06:29:04;;;;;;;5.57;3.22;;;16.80;99.90;;;;;;4878879;29;20523;-89
2022/05/23 06:31:30;;;;;;;3.67;2.30;;;16.80;99.90;;;;;;4862941;29;20049;-89
2022/05/23 06:33:59;;;;;;;3.45;2.75;;;16.70;99.90;;;;;;4863927;29;20041;-93
2022/05/23 06:36:25;;;;;;;3.55;2.60;;;16.70;99.90;;;;;;4878668;29;20190;-91
2022/05/23 06:38:51;;;;;;;3.42;2.60;;;16.60;99.90;;;;;;4879204;29;20140;-87
2022/05/23 06:41:17;;;;;;;3.58;3.28;;;16.60;99.90;;;;;;4847114;29;20511;-88
2022/05/23 06:43:44;;;;;;;5.97;3.17;;;16.60;99.90;;;;;;4862593;29;20060;-90
2022/05/23 06:46:12;;;;;;;3.80;2.60;;;16.60;99.90;;;;;;4877814;29;20120;-90
2022/05/23 06:48:38;;;;;;;4.28;2.97;;;16.60;99.90;;;;;;4862835;29;20115;-92
2022/05/23 06:51:04;;;;;;;;;;;16.70;99.90;;;;;;4879460;29;20044;-92
2022/05/23 06:53:32;;;;;;;4.85;3.13;;;16.80;99.90;;;;;;4878617;29;20405;-90
2022/05/23 06:55:58;;;;;;;6.90;3.13;;;17.00;99.90;;;;;;4877278;29;20488;-90
2022/05/23 06:58:24;;;;;;;3.45;2.70;;;17.10;99.90;;;;;;4877508;29;20105;-92
2022/05/23 07:00:51;;;;;;;2.83;2.60;;;17.20;99.90;;;;;;4847843;29;20045;-92
2022/05/23 07:03:16;;;;;;;5.97;3.00;;;17.20;99.90;;;;;;4877874;29;20049;-90
2022/05/23 07:13:55;;;;;;;4.22;2.50;;;17.70;99.90;;;;;;4877680;29;20124;-91
2022/05/23 07:16:22;;;;;;;5.25;2.55;;;18.00;99.90;;;;;;4877818;29;20493;-92
2022/05/23 07:18:48;;;;;;;3.17;2.92;;;18.30;99.90;;;;;;4876930;29;20088;-90
2022/05/23 07:21:15;;;;;;;3.67;2.53;;;18.50;99.90;;;;;;4875038;29;20448;-91
2022/05/23 07:23:41;;;;;;;4.65;3.47;;;18.70;99.90;;;;;;4877701;29;20055;-92
2022/05/23 07:26:09;;;;;;;5.00;2.40;;;18.90;99.90;;;;;;4879383;29;20108;-93
2022/05/23 07:28:35;;;;;;;3.53;2.35;;;19.10;99.90;;;;;;4876494;29;20084;-91
2022/05/23 07:31:02;;;;;;;3.33;2.40;;;19.30;99.90;;;;;;4877472;29;20077;-92
2022/05/23 07:33:29;;;;;;;6.65;2.60;;;19.50;99.90;;;;;;4862055;29;20060;-91
2022/05/23 07:36:00;;;;;;;3.92;2.55;;;19.50;99.90;;;;;;4878461;29;20056;-96
2022/05/23 07:38:28;;;;;;;4.63;2.38;;;19.60;99.90;;;;;;4878488;29;20049;-94
2022/05/23 07:40:54;;;;;;;3.70;2.13;;;19.60;99.90;;;;;;4884386;29;20104;-96
2022/05/23 07:43:22;;;;;;;3.95;3.10;;;19.50;99.90;;;;;;4898164;29;20037;-96
2022/05/23 07:48:40;;;;;;;5.35;2.47;;;19.60;99.90;;;;;;4935703;23;20045;-96
2022/05/23 07:51:29;;;;;;;3.08;2.03;;;19.20;99.90;;;;;;5088678;23;20045;-96
2022/05/23 08:02:23;;;;;;;4.00;3.40;;;19.40;99.90;;;;;;4860971;29;20051;-96
2022/05/23 08:04:52;;;;;;;3.58;2.45;;;20.30;99.90;;;;;;4876734;29;20052;-96
2022/05/23 08:07:31;;;;;;;4.97;3.10;;;20.50;99.90;;;;;;5027601;23;20285;-96
2022/05/23 08:10:13;;;;;;;2.42;1.92;;;20.70;99.90;;;;;;4886257;29;20056;-95
2022/05/23 08:12:57;;;;;;;5.07;2.47;;;20.50;99.90;;;;;;4903578;29;20043;-96
2022/05/23 08:15:37;;;;;;;;;;;;;;;;;;;;;
2022/05/23 08:18:08;;;;;;;2.47;2.17;;;21.30;99.90;;;;;;4901893;29;20052;-96
2022/05/23 08:20:35;;;;;;;2.83;2.58;;;20.90;99.90;;;;;;4902978;29;20042;-92
2022/05/23 08:23:01;;;;;;;2.33;2.13;;;21.20;99.90;;;;;;4888613;29;20048;-93
2022/05/23 08:25:27;;;;;;;2.42;1.83;;;21.30;99.90;;;;;;4907537;29;20116;-93
2022/05/23 08:27:53;;;;;;;3.17;2.28;;;20.80;99.90;;;;;;4898246;29;20041;-91
2022/05/23 08:30:19;;;;;;;5.38;2.63;;;21.50;99.90;;;;;;4881030;29;20057;-92
2022/05/23 08:32:46;;;;;;;2.35;2.15;;;21.60;99.90;;;;;;4880622;29;20469;-92
2022/05/23 08:35:13;;;;;;;5.38;2.28;;;21.60;99.90;;;;;;4897274;29;20044;-96
2022/05/23 08:37:39;;;;;;;4.05;2.85;;;21.60;99.90;;;;;;4896446;29;20399;-94
2022/05/23 08:40:07;;;;;;;2.25;1.98;;;21.70;99.90;;;;;;4881482;29;20053;-94
2022/05/23 08:42:55;;;;;;;2.38;1.88;;;21.70;99.90;;;;;;4882282;29;20525;-96
2022/05/23 08:45:23;;;;;;;4.30;2.47;;;21.70;99.90;;;;;;4886996;29;20044;-96
2022/05/23 08:48:12;;;;;;;4.45;2.00;;;21.80;99.90;;;;;;4867718;29;20054;-96
2022/05/23 08:50:53;;;;;;;2.60;2.03;;;22.00;99.90;;;;;;4880770;29;20044;-95
2022/05/23 08:53:25;;;;;;;5.03;2.10;;;22.10;99.90;;;;;;4881759;29;20052;-95
2022/05/23 08:56:42;;;;;;;2.35;2.15;;;22.20;99.90;;;;;;4897694;29;20053;-94
2022/05/23 08:59:21;;;;;;;2.30;1.95;;;22.40;99.90;;;;;;4863423;29;20067;-95
2022/05/23 09:01:51;;;;;;;3.17;2.00;;;22.50;99.90;;;;;;4876727;29;20546;-92
2022/05/23 09:04:34;;;;;;;4.15;2.05;;;22.60;99.90;;;;;;4900889;29;20151;-93
2022/05/23 09:07:02;;;;;;;2.42;1.95;;;22.70;99.90;;;;;;4899828;29;20061;-92
2022/05/23 09:09:32;;;;;;;6.65;1.92;;;22.80;99.90;;;;;;4883702;29;20056;-92
2022/05/23 09:12:24;;;;;;;2.47;2.05;;;22.90;99.90;;;;;;4868803;29;20060;-92
2022/05/23 09:14:50;;;;;;;1.80;1.70;;;23.00;99.90;;;;;;4863841;29;20423;-93
2022/05/23 09:17:25;;;;;;;2.67;2.28;;;23.10;99.90;;;;;;4884073;29;20048;-92
2022/05/23 09:20:09;;;;;;;2.53;2.33;;;23.10;99.90;;;;;;4899987;29;20052;-92
2022/05/23 09:22:50;;;;;;;3.58;2.33;;;23.20;99.90;;;;;;4883833;29;20104;-91
2022/05/23 09:25:22;;;;;;;2.42;1.85;;;23.30;99.90;;;;;;4882753;29;20470;-93
2022/05/23 09:27:48;;;;;;;1.55;1.30;;;23.30;99.90;;;;;;4881319;29;20057;-92
2022/05/23 09:30:17;;;;;;;1.92;1.73;;;23.40;99.90;;;;;;4882224;29;20529;-92
2022/05/23 09:33:08;;;;;;;1.73;1.63;;;23.40;99.90;;;;;;4898238;29;20036;-93
2022/05/23 09:35:48;;;;;;;2.95;1.52;;;23.50;99.90;;;;;;4872965;29;20139;-90
2022/05/23 09:38:21;;;;;;;3.10;2.05;;;23.50;99.90;;;;;;4898590;29;20492;-92
2022/05/23 09:40:47;;;;;;;2.95;1.50;;;23.50;99.90;;;;;;4882298;29;20051;-94
2022/05/23 09:47:44;;;;;;;1.75;1.50;;;23.40;99.90;;;;;;4883103;29;20018;-95
2022/05/23 09:49:21;;;;;;;1.95;1.27;;;23.30;99.90;;;;;;4880849;29;20048;-94
2022/05/23 09:52:00;;;;;;;2.67;1.58;;;23.50;99.90;;;;;;4897853;29;20115;-96
2022/05/23 09:54:43;;;;;;;2.28;1.85;;;23.70;99.90;;;;;;4899660;29;20076;-94
2022/05/23 09:57:32;;;;;;;1.45;1.35;;;23.90;99.90;;;;;;4884098;29;20057;-87
2022/05/23 10:00:03;;;;;;;1.60;1.30;;;23.90;99.70;;;;;;4888053;29;20456;-89
2022/05/23 10:02:39;;;;;;;1.42;1.27;;;23.80;99.10;;;;;;4867082;29;20563;-87
2022/05/23 10:05:25;;;;;;;3.60;1.58;;;23.70;99.20;;;;;;4864973;29;20613;-89
2022/05/23 10:07:55;;;;;;;1.70;1.60;;;23.60;99.20;;;;;;4864378;29;20053;-88
2022/05/23 10:10:33;;;;;;;3.40;1.77;;;23.50;99.00;;;;;;4895083;29;20045;-90
2022/05/23 10:13:23;;;;;;;1.40;1.30;;;23.50;99.80;;;;;;4886322;29;20065;-92
2022/05/23 10:15:53;;;;;;;3.95;1.48;;;23.50;99.10;;;;;;4879702;29;20535;-91
2022/05/23 10:18:30;;;;;;;2.03;1.55;;;23.50;99.50;;;;;;4897843;29;20048;-89
2022/05/23 10:21:00;;;;;;;2.08;1.30;;;23.60;99.50;;;;;;4895934;29;20587;-91
2022/05/23 10:23:29;;;;;;;3.45;1.80;;;23.60;99.50;;;;;;4883879;29;20349;-89
2022/05/23 10:26:23;;;;;;;2.97;1.48;;;23.70;99.30;;;;;;4889534;29;20060;-92
2022/05/23 10:29:06;;;;;;;1.92;1.63;;;23.80;99.50;;;;;;4883755;29;20399;-94
2022/05/23 10:31:42;;;;;;;4.10;1.80;;;23.70;98.60;;;;;;4882895;29;20522;-93
2022/05/23 10:34:29;;;;;;;5.77;2.33;;;23.80;99.00;;;;;;4881279;29;20181;-92
2022/05/23 10:36:57;;;;;;;4.72;2.13;;;23.80;99.00;;;;;;4864129;29;20139;-91
2022/05/23 10:42:52;;;;;;;2.85;2.22;;;23.90;99.10;;;;;;4897263;29;20163;-92
2022/05/23 10:45:29;;;;;;;3.30;2.80;;;24.10;98.50;;;;;;4865669;29;20053;-89
2022/05/23 10:48:21;;;;;;;3.92;2.08;;;24.20;98.80;;;;;;4869924;29;20057;-90
2022/05/23 10:51:14;;;;;;;4.15;2.00;;;24.30;98.80;;;;;;4829530;29;20052;-90
2022/05/23 10:53:49;;;;;;;2.83;1.70;;;24.60;98.40;;;;;;4851773;29;20075;-94
2022/05/23 10:56:28;;;;;;;5.47;1.77;;;24.70;97.30;;;;;;4881807;29;20181;-89
2022/05/23 10:58:59;;;;;;;2.83;1.52;;;24.80;97.30;;;;;;4865290;29;20391;-88
2022/05/23 11:02:18;;;;;;;4.00;1.88;;;24.90;97.60;;;;;;4867237;29;20047;-94
2022/05/23 11:04:54;;;;;;;1.83;1.48;;;25.00;96.40;;;;;;4772327;29;20054;-91
2022/05/23 11:07:37;;;;;;;3.63;2.03;;;25.00;96.10;;;;;;4770889;29;20086;-90
2022/05/23 11:10:13;;;;;;;2.15;1.80;;;25.20;95.60;;;;;;4846240;29;20048;-88
2022/05/23 11:12:51;;;;;;;3.10;1.77;;;25.30;96.30;;;;;;4875309;29;20055;-91
2022/05/23 11:15:39;;;;;;;2.92;1.65;;;25.30;96.00;;;;;;4864666;29;20051;-91
2022/05/23 11:18:20;;;;;;;3.55;1.80;;;25.40;95.30;;;;;;4875088;29;20048;-93
2022/05/23 11:20:49;;;;;;;1.83;1.50;;;25.30;94.90;;;;;;4873879;29;20484;-92
2022/05/23 11:23:21;;;;;;;3.47;1.35;;;25.30;95.40;;;;;;4879780;29;20112;-93
2022/05/23 11:25:54;;;;;;;1.40;1.30;;;25.40;95.50;;;;;;4865480;29;20131;-94
2022/05/23 11:34:28;;;;;;;3.55;1.27;;;25.70;93.00;;;;;;4891386;29;20057;-93
2022/05/23 11:37:01;;;;;;;1.65;1.40;;;25.70;92.40;;;;;;4879476;29;20053;-89
2022/05/23 11:39:50;;;;;;;1.67;1.35;;;25.70;91.90;;;;;;4881229;29;20049;-93
2022/05/23 11:42:22;;;;;;;2.22;1.50;;;25.70;91.70;;;;;;4878079;29;20431;-90
2022/05/23 11:44:50;;;;;;;3.08;1.50;;;25.70;91.80;;;;;;4865417;29;20048;-91
2022/05/23 11:47:18;;;;;;;2.60;1.70;;;25.70;92.00;;;;;;4863175;29;20040;-91
2022/05/23 11:50:00;;;;;;;1.95;1.17;;;25.70;92.10;;;;;;4880278;29;20104;-88
2022/05/23 11:52:44;;;;;;;1.60;1.13;;;25.70;92.00;;;;;;4879998;29;20060;-94
2022/05/23 11:55:48;;;;;;;1.38;1.27;;;25.60;91.20;;;;;;4892329;29;20062;-87
2022/05/23 11:58:22;;;;;;;3.50;1.35;;;25.60;91.80;;;;;;4863547;29;20055;-89
2022/05/23 12:01:26;;;;;;;5.22;1.42;;;25.60;91.50;;;;;;4878934;29;20111;-86
2022/05/23 12:03:55;;;;;;;1.88;1.25;;;25.60;91.80;;;;;;4785186;29;20055;-88
2022/05/23 12:06:24;;;;;;;2.60;1.92;;;25.50;91.40;;;;;;4866781;29;20838;-89
2022/05/23 12:08:59;;;;;;;2.67;2.42;;;25.50;91.40;;;;;;4879497;29;20496;-89
2022/05/23 12:11:26;;;;;;;1.70;1.60;;;25.60;91.60;;;;;;4864051;29;20045;-89
2022/05/23 12:13:58;;;;;;;1.65;1.55;;;25.70;91.50;;;;;;4865094;29;20052;-92
2022/05/23 12:16:29;;;;;;;1.23;1.13;;;25.80;91.40;;;;;;4890466;29;20404;-91
2022/05/23 12:19:14;;;;;;;1.55;1.45;;;25.80;91.70;;;;;;4867225;29;20051;-91
2022/05/23 12:21:46;;;;;;;2.00;1.90;;;26.10;90.50;;;;;;4879737;29;20059;-92
2022/05/23 12:24:24;;;;;;;1.30;1.20;;;26.30;90.50;;;;;;4879604;29;20125;-92
2022/05/23 12:26:53;;;;;;;4.07;1.63;;;26.50;90.20;;;;;;4880099;29;20048;-90
2022/05/23 12:29:37;;;;;;;1.70;1.40;;;26.40;88.90;;;;;;4879338;29;20472;-92
2022/05/23 12:32:24;;;;;;;2.50;1.40;;;26.30;88.90;;;;;;4892640;29;20057;-90
2022/05/23 12:37:34;;;;;;;1.77;1.38;;;25.80;88.80;;;;;;5330732;23;20136;-94
2022/05/23 12:40:32;;;;;;;1.40;1.30;;;25.60;87.70;;;;;;5213100;23;21251;31
2022/05/23 12:49:21;;;;;;;2.28;1.40;;;25.10;89.10;;;;;;5570368;23;20064;-92
2022/05/23 12:52:13;;;;;;;2.83;1.50;;;25.10;90.00;;;;;;5493415;23;20056;-93
2022/05/23 12:54:59;;;;;;;2.50;1.67;;;25.10;89.80;;;;;;4844786;29;20081;-95
2022/05/23 13:00:55;;;;;;;1.77;1.67;;;25.00;90.60;;;;;;5235361;23;20075;-95
2022/05/23 13:04:08;;;;;;;1.90;1.75;;;25.00;90.20;;;;;;4866944;29;20111;-95
2022/05/23 13:06:40;;;;;;;2.80;1.50;;;24.80;90.10;;;;;;4885278;29;20049;-96
2022/05/23 13:12:16;;;;;;;;;;;;;;;;;;;;;
2022/05/23 13:17:44;;;;;;;2.30;2.10;;;24.80;90.50;;;;;;5883651;23;20751;31
2022/05/23 13:23:17;;;;;;;1.38;1.27;;;24.70;91.00;;;;;;4897640;29;20048;-93
2022/05/23 13:25:43;;;;;;;1.40;1.30;;;25.00;91.50;;;;;;4894712;29;20044;-96
2022/05/23 13:28:11;;;;;;;1.95;1.67;;;24.50;91.60;;;;;;4852198;29;20055;-96
2022/05/23 13:30:49;;;;;;;2.25;1.90;;;24.40;91.90;;;;;;4881986;29;20048;-96
2022/05/23 13:33:20;;;;;;;1.40;1.30;;;24.50;91.80;;;;;;4865188;29;20131;-91
2022/05/23 13:35:53;;;;;;;2.10;1.77;;;24.50;91.80;;;;;;4895009;29;20059;-96
2022/05/23 13:38:26;;;;;;;2.50;1.90;;;24.60;91.90;;;;;;4895283;29;20073;-89
2022/05/23 13:40:57;;;;;;;3.90;1.70;;;24.70;91.40;;;;;;4877090;29;20488;-88
2022/05/23 13:43:31;;;;;;;2.55;2.20;;;24.70;91.20;;;;;;4895195;29;20044;-88
2022/05/23 13:46:16;;;;;;;2.17;1.63;;;24.70;91.30;;;;;;4866018;29;20061;-89
2022/05/23 13:48:44;;;;;;;3.25;2.53;;;24.70;90.90;;;;;;4877726;29;20496;-89
2022/05/23 13:51:16;;;;;;;4.00;2.83;;;24.70;90.90;;;;;;4882004;29;20048;-88
2022/05/23 13:53:52;;;;;;;4.32;1.70;;;24.70;91.40;;;;;;4882002;29;20060;-89
2022/05/23 13:56:19;;;;;;;1.98;1.85;;;24.70;91.30;;;;;;4881091;29;20372;-88
2022/05/23 13:58:53;;;;;;;3.40;1.80;;;24.60;91.40;;;;;;4882233;29;20562;-90
2022/05/23 14:01:21;;;;;;;3.53;1.90;;;24.50;91.40;;;;;;4878036;29;20550;-85
2022/05/23 14:04:00;;;;;;;2.13;1.88;;;24.50;92.10;;;;;;4881816;29;20523;-89
2022/05/23 14:06:31;;;;;;;4.25;1.85;;;24.50;92.70;;;;;;4880509;29;20562;-89
2022/05/23 14:09:01;;;;;;;2.30;2.08;;;24.40;92.80;;;;;;4882304;29;20040;-87
2022/05/23 14:11:33;;;;;;;3.97;2.05;;;24.30;92.60;;;;;;4882176;29;20128;-87
2022/05/23 14:14:11;;;;;;;4.13;1.75;;;24.30;92.50;;;;;;4895233;29;20048;-89
2022/05/23 14:16:37;;;;;;;3.80;2.17;;;24.30;92.60;;;;;;4886077;29;20060;-90
2022/05/23 14:19:20;;;;;;;6.22;2.50;;;24.40;92.70;;;;;;4883571;29;20052;-88
2022/05/23 14:21:46;;;;;;;2.30;2.10;;;24.50;93.30;;;;;;4879667;29;20152;-88
2022/05/23 14:24:30;;;;;;;5.53;2.10;;;24.50;92.40;;;;;;4880150;29;20140;-87
2022/05/23 14:27:17;;;;;;;2.88;1.88;;;24.50;92.50;;;;;;4879991;29;20084;-87
2022/05/23 14:29:44;;;;;;;2.67;1.90;;;24.50;92.60;;;;;;4879923;29;20057;-87
2022/05/23 14:32:13;;;;;;;4.15;2.25;;;24.40;92.50;;;;;;4891385;29;20513;-86